KRHI

Rhinelander-Oneida County Airport

Rhinelander, Wisconsin, USA
KRHI 171721Z 1718/1818 29014G24KT P6SM SCT030 BKN045 FM172100 30012G18KT P6SM SCT050 FM172300 30005KT P6SM SKC FM180200 VRB03KT P6SM SKC FM181500 22010G19KT P6SM SKC
Issued Valid From Valid To
Oct-17 @ 17:21 UTC
(4 hours ago)
Oct-17 @ 18:00 UTC
(3 hours ago)
Oct-18 @ 18:00 UTC
(in 21 hours)
Oct-17 @ 18:00 to Oct-17 @ 21:00
KRHI 171721Z 1718/1818 29014G24KT P6SM SCT030 BKN045
Wind Visibility Clouds
290° at 14 knots
 Gusting to 24 knots
Greater than 6 miles
  • Scattered at 3,000' AGL
  • Broken at 4,500' AGL
From Oct-17 @ 21:00 to Oct-17 @ 23:00
FM172100 30012G18KT P6SM SCT050
Wind Visibility Clouds
300° at 12 knots
 Gusting to 18 knots
Greater than 6 miles
  • Scattered at 5,000' AGL
From Oct-17 @ 23:00 to Oct-18 @ 02:00
FM172300 30005KT P6SM SKC
Wind Visibility Clouds
300° at 5 knots Greater than 6 miles
  • Clear skies
From Oct-18 @ 02:00 to Oct-18 @ 15:00
FM180200 VRB03KT P6SM SKC
Wind Visibility Clouds
Variable at 3 knots Greater than 6 miles
  • Clear skies
From Oct-18 @ 15:00 to Oct-18 @ 18:00
FM181500 22010G19KT P6SM SKC
Wind Visibility Clouds
220° at 10 knots
 Gusting to 19 knots
Greater than 6 miles
  • Clear skies
KRHI 171721Z 1718/1818 29014G24KT P6SM SCT030 BKN045 FM172100 30012G18KT P6SM SCT050 FM172300 30005KT P6SM SKC FM180200 VRB03KT P6SM SKC FM181500 22010G19KT P6SM SKC
Issued Oct-17 @ 17:21 UTC
(4 hours ago)
Valid From Oct-17 @ 18:00 UTC
(3 hours ago)
Valid To Oct-18 @ 18:00 UTC
(in 21 hours)
Oct-17 @ 18:00 - Oct-17 @ 21:00
Wind Visibility
290° at 14 knots
 Gusting to 24 knots
Greater than 6 miles
Clouds
  • Scattered at 3,000' AGL
  • Broken at 4,500' AGL
From Oct-17 @ 21:00 - Oct-17 @ 23:00
Wind Visibility
300° at 12 knots
 Gusting to 18 knots
Greater than 6 miles
Clouds
  • Scattered at 5,000' AGL
From Oct-17 @ 23:00 - Oct-18 @ 02:00
Wind Visibility
300° at 5 knots Greater than 6 miles
Clouds
  • Clear skies
From Oct-18 @ 02:00 - Oct-18 @ 15:00
Wind Visibility
Variable at 3 knots Greater than 6 miles
Clouds
  • Clear skies
From Oct-18 @ 15:00 - Oct-18 @ 18:00
Wind Visibility
220° at 10 knots
 Gusting to 19 knots
Greater than 6 miles
Clouds
  • Clear skies